Latest Coastal Weather Observations for Geelong Racecourse

IDV60701

Issued at 7:52 pm EST Monday 4 May 2026 (issued every 10 minutes, with the page automatically refreshed every 10 minutes)

About coastal observations | Map of coastal stations | Coastal observations for VIC | Marine services | Other Formats
Station Details ID: 087184 Name: GEELONG RACECOURSE Lat: -38.17 Lon: 144.38 Height: 12.9 m
Data from the previous 72 hours. | See also: Recent months at Geelong Racecourse
Date/Time
EST
Wind Sea
Height
m
Swell Vis
km
Cloud Weather Temp
°C
Press
MSL
hPa
Rain since
9am
mm
Dir  Spd
kts
Gust
kts
Height
m
Period
s
Dir
04/07:30pm NW 13 21 - - - - - - - 15.3 1010.5 0.0
04/07:00pm NW 11 21 - - - - - - - 15.5 1009.9 0.0
04/06:30pm NW 11 17 - - - - - - - 16.3 1009.4 0.0
04/06:00pm NW 11 16 - - - - - - - 16.6 1008.9 0.0
04/05:30pm NW 14 21 - - - - - - - 16.9 1008.3 0.0
04/05:00pm NNW 14 23 - - - - - - - 17.9 1008.1 0.0
04/04:38pm NNW 15 26 - - - - - - - 18.6 1007.7 0.0
04/04:30pm NNW 13 20 - - - - - - - 18.2 1007.8 0.0
04/04:04pm NNW 16 28 - - - - - - - 18.6 1007.5 0.0
04/04:00pm NNW 16 23 - - - - - - - 18.9 1007.6 0.0
04/03:35pm NNW 15 27 - - - - - - - 18.4 1007.6 0.0
04/03:30pm NNW 14 23 - - - - - - - 18.6 1007.7 0.0
04/03:04pm NNW 16 27 - - - - - - - 18.9 1007.7 0.0
04/03:00pm NNW 16 24 - - - - - - - 18.6 1007.6 0.0
04/02:39pm NNW 15 25 - - - - - - - 18.7 1007.6 0.0
04/02:30pm NNW 16 25 - - - - - - - 18.6 1007.5 0.0
04/02:00pm NNW 18 31 - - - - - - - 19.0 1007.5 0.0
04/01:30pm NNW 16 26 - - - - - - - 19.1 1007.7 0.0
04/01:00pm NNW 18 31 - - - - - - - 19.1 1008.2 0.0
04/12:45pm NNW 16 27 - - - - - - - 18.4 1008.3 0.0
04/12:30pm NNW 16 24 - - - - - - - 17.8 1008.7 0.0
04/12:01pm NNW 15 25 - - - - - - - 17.1 1009.1 0.0
04/12:00pm NNW 15 24 - - - - - - - 17.1 1009.0 0.0
04/11:30am NNW 16 27 - - - - - - - 17.9 1009.3 0.0
04/11:20am NNW 16 28 - - - - - - - 17.1 1009.2 0.0
04/11:00am NNW 14 23 - - - - - - - 17.8 1009.3 0.0
04/10:46am NNW 15 26 - - - - - - - 17.6 1009.2 0.0
04/10:30am NNW 15 22 - - - - - - - 16.9 1009.4 0.0
04/10:00am NNW 11 17 - - - - - - - 17.0 1009.6 0.0
04/09:30am N 12 19 - - - - - - - 15.7 1009.7 0.0
04/09:00am N 11 17 - - - - - - - 15.3 1009.8 8.0
04/08:30am N 9 13 - - - - - - - 14.1 1010.0 8.0
04/08:00am NNE 7 11 - - - - - - - 13.2 1010.0 8.0
04/07:30am NNE 7 11 - - - - - - - 12.6 1010.0 8.0
04/07:00am NNE 4 7 - - - - - - - 12.3 1010.1 8.0
04/06:30am NNE 5 8 - - - - - - - 12.5 1009.8 8.0
04/06:00am NNE 7 11 - - - - - - - 12.6 1010.0 8.0
04/05:30am NNE 7 12 - - - - - - - 12.5 1009.8 8.0
04/05:00am NNE 8 11 - - - - - - - 12.5 1010.2 8.0
04/04:30am N 6 10 - - - - - - - 12.3 1010.4 8.0
04/04:00am NNE 9 13 - - - - - - - 12.6 1010.5 8.0
04/03:30am NNE 9 13 - - - - - - - 12.7 1010.6 8.0
04/03:00am NNE 7 11 - - - - - - - 12.6 1010.9 8.0
04/02:30am NNE 7 11 - - - - - - - 12.7 1011.0 8.0
04/02:00am NNE 6 9 - - - - - - - 12.9 1011.1 8.0
04/01:30am NNE 6 8 - - - - - - - 13.5 1011.1 8.0
04/01:00am N 5 9 - - - - - - - 13.8 1011.1 8.0
04/12:30am N 6 10 - - - - - - - 13.9 1011.2 8.0
04/12:00am N 6 9 - - - - - - - 13.6 1011.4 8.0
 
Date/Time
EST
Wind Sea
Height
m
Swell Vis
km
Cloud Weather Temp
°C
Press
MSL
hPa
Rain since
9am
mm
Dir  Spd
kts
Gust
kts
Height
m
Period
s
Dir
03/11:30pm NNE 4 7 - - - - - - - 13.4 1011.4 8.0
03/11:00pm N 4 6 - - - - - - - 13.5 1011.6 8.0
03/10:30pm N 5 8 - - - - - - - 13.9 1011.9 8.0
03/10:00pm NNE 3 5 - - - - - - - 14.2 1011.9 8.0
03/09:30pm NNE 4 7 - - - - - - - 14.6 1012.3 8.0
03/09:00pm N 5 9 - - - - - - - 15.1 1012.2 8.0
03/08:30pm N 6 8 - - - - - - - 15.2 1012.1 8.0
03/08:00pm N 6 9 - - - - - - - 15.5 1011.8 8.0
03/07:30pm N 8 10 - - - - - - - 16.0 1011.8 8.0
03/07:00pm N 7 11 - - - - - - - 16.3 1011.3 8.0
03/06:30pm N 6 8 - - - - - - - 16.5 1010.6 8.0
03/06:00pm N 8 12 - - - - - - - 16.9 1010.3 8.0
03/05:30pm N 7 11 - - - - - - - 17.5 1010.1 8.0
03/05:00pm N 8 13 - - - - - - - 18.1 1009.7 8.0
03/04:30pm NNW 9 14 - - - - - - - 18.8 1009.7 8.0
03/04:00pm NW 11 18 - - - - - - - 19.3 1009.9 8.0
03/03:30pm NW 9 16 - - - - - - - 19.9 1010.0 8.0
03/03:00pm NW 10 16 - - - - - - - 19.2 1010.0 8.0
03/02:30pm NNW 10 17 - - - - - - - 19.6 1009.8 8.0
03/02:00pm N 7 10 - - - - - - - 18.2 1009.9 8.0
03/01:30pm N 3 4 - - - - - - - 16.4 1010.1 8.0
03/01:00pm NNW 4 5 - - - - - - - 15.9 1010.2 7.8
03/12:30pm WNW 7 12 - - - - - - - 15.0 1010.4 7.8
03/12:00pm WNW 9 17 - - - - - - Rain 14.6 1010.4 7.6
03/11:30am NNW 6 10 - - - - - - - 17.8 1010.1 4.4
03/11:00am N 8 12 - - - - - - - 17.6 1010.1 3.0
03/10:30am N 9 13 - - - - - - - 17.5 1009.7 2.2
03/10:00am N 11 15 - - - - - - - 17.7 1009.8 1.4
03/09:30am NNE 11 18 - - - - - - - 17.4 1010.0 1.4
03/09:16am N 12 21 - - - - - - - 17.4 1010.0 1.2
03/09:06am N 13 20 - - - - - - - 18.4 1010.5 0.2
03/09:00am N 11 17 - - - - - - Thunderstorm 18.5 1010.4 1.2
03/08:30am N 11 15 - - - - - - - 18.3 1009.9 1.2
03/08:00am NNE 8 13 - - - - - - - 17.9 1009.5 1.2
03/07:30am N 9 13 - - - - - - - 18.3 1010.4 1.2
03/07:00am N 12 18 - - - - - - - 18.7 1010.8 1.2
03/06:30am N 6 10 - - - - - - - 18.6 1010.7 1.2
03/06:00am N 6 9 - - - - - - Recent precip. 18.9 1010.9 1.2
03/05:30am N 7 12 - - - - - - - 18.8 1011.2 1.2
03/05:00am N 8 12 - - - - - - - 19.1 1011.1 1.0
03/04:30am N 7 11 - - - - - - - 18.2 1011.2 1.0
03/04:00am N 5 8 - - - - - - - 18.8 1011.1 0.6
03/03:30am N 5 8 - - - - - - - 19.3 1011.3 0.6
03/03:00am NNW 6 10 - - - - - - - 19.2 1011.8 0.6
03/02:30am N 8 12 - - - - - - - 19.3 1011.9 0.6
03/02:00am NNE 5 10 - - - - - - - 19.1 1012.0 0.6
03/01:30am N 5 8 - - - - - - - 19.2 1012.4 0.6
03/01:00am N 4 6 - - - - - - - 19.3 1012.7 0.6
03/12:30am N 7 14 - - - - - - - 19.6 1012.9 0.4
03/12:00am N 4 6 - - - - - - Recent precip. 18.9 1013.4 0.2
 
Date/Time
EST
Wind Sea
Height
m
Swell Vis
km
Cloud Weather Temp
°C
Press
MSL
hPa
Rain since
9am
mm
Dir  Spd
kts
Gust
kts
Height
m
Period
s
Dir
02/11:30pm N 6 8 - - - - - - - 19.2 1013.6 0.2
02/11:00pm N 10 15 - - - - - - - 20.1 1013.8 0.0
02/10:30pm NNW 7 13 - - - - - - - 20.2 1013.9 0.0
02/10:00pm NNW 5 8 - - - - - - - 20.0 1014.1 0.0
02/09:30pm NNW 6 9 - - - - - - - 21.0 1014.1 0.0
02/09:00pm NNW 5 8 - - - - - - - 21.3 1014.0 0.0
02/08:30pm NNW 5 7 - - - - - - - 21.2 1014.1 0.0
02/08:00pm NNW 4 5 - - - - - - - 21.5 1014.0 0.0
02/07:30pm NNW 6 10 - - - - - - - 22.4 1014.2 0.0
02/07:00pm NNE 5 7 - - - - - - - 21.7 1014.4 0.0
02/06:30pm NNE 7 10 - - - - - - - 22.2 1014.1 0.0
02/06:00pm N 8 13 - - - - - - - 22.9 1013.8 0.0
02/05:30pm N 6 8 - - - - - - - 22.6 1013.8 0.0
02/05:00pm NNE 7 13 - - - - - - - 22.5 1013.8 0.0
02/04:30pm N 11 17 - - - - - - - 23.7 1013.7 0.0
02/04:00pm N 12 18 - - - - - - - 24.4 1013.6 0.0
02/03:30pm NE 8 12 - - - - - - - 23.8 1013.8 0.0
02/03:00pm NNE 9 16 - - - - - - - 23.8 1013.7 0.0
02/02:30pm N 9 13 - - - - - - - 22.9 1013.9 0.0
02/02:00pm N 8 13 - - - - - - - 23.6 1014.2 0.0
02/01:30pm N 9 14 - - - - - - - 22.0 1014.7 0.0
02/01:00pm N 8 12 - - - - - - - 21.6 1015.5 0.0
02/12:30pm N 10 16 - - - - - - - 21.2 1015.9 0.0
02/12:00pm N 9 15 - - - - - - - 20.8 1016.5 0.0
02/11:30am N 10 17 - - - - - - - 20.8 1017.0 0.0
02/11:00am N 11 18 - - - - - - - 21.0 1017.2 0.0
02/10:30am N 12 18 - - - - - - - 20.3 1017.5 0.0
02/10:00am NNE 10 14 - - - - - - - 19.9 1017.8 0.0
02/09:30am NNE 10 16 - - - - - - - 19.6 1018.2 0.0
02/09:00am NNE 8 13 - - - - - - - 19.3 1018.3 0.0
02/08:30am N 6 8 - - - - - - - 18.7 1018.4 0.0
02/08:00am N 7 11 - - - - - - - 18.4 1018.2 0.0
02/07:30am NNE 6 9 - - - - - - - 17.8 1018.2 0.0
02/07:00am NNE 7 11 - - - - - - - 17.4 1017.8 0.0
02/06:30am NNE 7 9 - - - - - - - 17.2 1017.8 0.0
02/06:00am NNE 6 9 - - - - - - - 17.0 1017.7 0.0
02/05:30am NNE 5 8 - - - - - - - 16.9 1017.8 0.0
02/05:00am NNE 5 8 - - - - - - - 17.2 1017.9 0.0
02/04:30am NNE 7 9 - - - - - - - 17.3 1018.1 0.0
02/04:00am NNE 7 10 - - - - - - - 17.8 1018.2 0.0
02/03:30am NNE 5 7 - - - - - - - 17.2 1018.4 0.0
02/03:00am NNE 7 10 - - - - - - - 17.6 1018.5 0.0
02/02:30am NNE 6 10 - - - - - - - 17.7 1018.8 0.0
02/02:00am NE 6 7 - - - - - - - 17.2 1019.2 0.0
02/01:30am NE 4 6 - - - - - - - 17.0 1019.4 0.0
02/01:00am NNE 5 8 - - - - - - - 17.5 1019.7 0.0
02/12:30am NNE 4 6 - - - - - - - 17.8 1020.0 0.0
02/12:00am NNE 5 7 - - - - - - - 17.6 1020.2 0.0
 
Date/Time
EST
Wind Sea
Height
m
Swell Vis
km
Cloud Weather Temp
°C
Press
MSL
hPa
Rain since
9am
mm
Dir  Spd
kts
Gust
kts
Height
m
Period
s
Dir
01/11:30pm NNE 5 7 - - - - - - - 17.7 1020.6 0.0
01/11:00pm NNE 4 5 - - - - - - - 18.1 1020.9 0.0
01/10:30pm NNE 3 5 - - - - - - - 18.3 1021.2 0.0
01/10:00pm NNE 6 9 - - - - - - - 20.4 1021.2 0.0
01/09:30pm NNE 6 8 - - - - - - - 20.4 1021.3 0.0
01/09:00pm NNE 6 9 - - - - - - - 20.3 1021.2 0.0
01/08:30pm NNE 5 7 - - - - - - - 20.2 1021.2 0.0
01/08:00pm NNE 5 8 - - - - - - - 20.1 1021.1 0.0

Other formats

Comma delimited format used in spreadsheet applications
http://www.bom.gov.au/fwo/IDV60701/IDV60701.94857.axf

JavaScript Object Notation format (JSON) in row-major order
http://www.bom.gov.au/fwo/IDV60701/IDV60701.94857.json

Data quality

Most of these data are generated automatically and are frequently updated. Quality checks on data are not normally performed. It is possible for incorrect values to appear. Refer to information at About Latest Weather Observations and please check the disclaimer before using these data.